sensor_id;sensor_type;location;lat;lon;timestamp;P1;durP1;ratioP1;P2;durP2;ratioP2
67902;SDS011;54708;43.612;1.568;2024-03-02T00:00:10;9.65;;;5.80;;
67902;SDS011;54708;43.612;1.568;2024-03-02T00:02:45;10.82;;;5.65;;
67902;SDS011;54708;43.612;1.568;2024-03-02T00:05:11;18.00;;;7.22;;
67902;SDS011;54708;43.612;1.568;2024-03-02T00:07:39;9.65;;;6.50;;
67902;SDS011;54708;43.612;1.568;2024-03-02T00:10:07;14.35;;;7.05;;
67902;SDS011;54708;43.612;1.568;2024-03-02T00:12:40;12.60;;;8.05;;
67902;SDS011;54708;43.612;1.568;2024-03-02T00:15:07;14.02;;;7.75;;
67902;SDS011;54708;43.612;1.568;2024-03-02T00:17:46;15.80;;;8.20;;
67902;SDS011;54708;43.612;1.568;2024-03-02T00:20:17;11.75;;;6.75;;
67902;SDS011;54708;43.612;1.568;2024-03-02T00:22:43;12.50;;;8.10;;
67902;SDS011;54708;43.612;1.568;2024-03-02T00:25:09;14.82;;;7.65;;
67902;SDS011;54708;43.612;1.568;2024-03-02T00:27:35;15.75;;;8.45;;
67902;SDS011;54708;43.612;1.568;2024-03-02T00:30:01;12.32;;;7.22;;
67902;SDS011;54708;43.612;1.568;2024-03-02T00:33:09;13.35;;;8.13;;
67902;SDS011;54708;43.612;1.568;2024-03-02T00:35:35;15.23;;;7.18;;
67902;SDS011;54708;43.612;1.568;2024-03-02T00:38:06;13.90;;;8.02;;
67902;SDS011;54708;43.612;1.568;2024-03-02T00:40:32;13.48;;;7.93;;
67902;SDS011;54708;43.612;1.568;2024-03-02T00:42:57;15.70;;;6.40;;
67902;SDS011;54708;43.612;1.568;2024-03-02T00:45:23;13.80;;;8.15;;
67902;SDS011;54708;43.612;1.568;2024-03-02T00:47:50;12.48;;;7.13;;
67902;SDS011;54708;43.612;1.568;2024-03-02T00:50:15;12.05;;;7.80;;
67902;SDS011;54708;43.612;1.568;2024-03-02T00:52:41;10.93;;;7.30;;
67902;SDS011;54708;43.612;1.568;2024-03-02T00:55:07;12.65;;;6.38;;
67902;SDS011;54708;43.612;1.568;2024-03-02T00:57:33;8.30;;;6.40;;
67902;SDS011;54708;43.612;1.568;2024-03-02T00:59:59;11.48;;;6.38;;
67902;SDS011;54708;43.612;1.568;2024-03-02T01:02:25;12.38;;;7.15;;
67902;SDS011;54708;43.612;1.568;2024-03-02T01:04:50;11.60;;;6.88;;
67902;SDS011;54708;43.612;1.568;2024-03-02T01:07:16;11.05;;;6.00;;
67902;SDS011;54708;43.612;1.568;2024-03-02T01:09:41;8.70;;;5.97;;
67902;SDS011;54708;43.612;1.568;2024-03-02T01:12:06;10.60;;;6.00;;
67902;SDS011;54708;43.612;1.568;2024-03-02T01:14:32;10.95;;;6.13;;
67902;SDS011;54708;43.612;1.568;2024-03-02T01:16:57;9.75;;;6.22;;
67902;SDS011;54708;43.612;1.568;2024-03-02T01:19:23;9.10;;;6.10;;
67902;SDS011;54708;43.612;1.568;2024-03-02T01:21:48;9.98;;;5.28;;
67902;SDS011;54708;43.612;1.568;2024-03-02T01:24:15;7.05;;;5.50;;
67902;SDS011;54708;43.612;1.568;2024-03-02T01:26:41;13.55;;;7.53;;
67902;SDS011;54708;43.612;1.568;2024-03-02T01:29:07;10.95;;;6.60;;
67902;SDS011;54708;43.612;1.568;2024-03-02T01:31:32;7.50;;;5.55;;
67902;SDS011;54708;43.612;1.568;2024-03-02T01:33:58;11.13;;;5.30;;
67902;SDS011;54708;43.612;1.568;2024-03-02T01:36:23;9.30;;;5.50;;
67902;SDS011;54708;43.612;1.568;2024-03-02T01:38:49;5.55;;;4.75;;
67902;SDS011;54708;43.612;1.568;2024-03-02T01:41:15;7.53;;;5.97;;
67902;SDS011;54708;43.612;1.568;2024-03-02T01:43:40;9.25;;;5.43;;
67902;SDS011;54708;43.612;1.568;2024-03-02T01:46:05;12.27;;;5.25;;
67902;SDS011;54708;43.612;1.568;2024-03-02T01:48:31;7.95;;;5.53;;
67902;SDS011;54708;43.612;1.568;2024-03-02T01:50:56;11.63;;;5.18;;
67902;SDS011;54708;43.612;1.568;2024-03-02T01:53:22;7.32;;;4.85;;
67902;SDS011;54708;43.612;1.568;2024-03-02T01:55:48;8.75;;;6.25;;
67902;SDS011;54708;43.612;1.568;2024-03-02T01:58:13;9.70;;;5.18;;
67902;SDS011;54708;43.612;1.568;2024-03-02T02:00:39;11.65;;;6.10;;
67902;SDS011;54708;43.612;1.568;2024-03-02T02:03:04;8.68;;;5.55;;
67902;SDS011;54708;43.612;1.568;2024-03-02T02:05:31;11.93;;;6.53;;
67902;SDS011;54708;43.612;1.568;2024-03-02T02:07:57;11.57;;;6.20;;
67902;SDS011;54708;43.612;1.568;2024-03-02T02:10:23;8.93;;;5.38;;
67902;SDS011;54708;43.612;1.568;2024-03-02T02:12:49;11.77;;;5.68;;
67902;SDS011;54708;43.612;1.568;2024-03-02T02:15:27;10.23;;;5.28;;
67902;SDS011;54708;43.612;1.568;2024-03-02T02:17:54;8.88;;;5.35;;
67902;SDS011;54708;43.612;1.568;2024-03-02T02:20:20;8.18;;;5.63;;
67902;SDS011;54708;43.612;1.568;2024-03-02T02:22:58;11.55;;;6.05;;
67902;SDS011;54708;43.612;1.568;2024-03-02T02:25:24;10.05;;;6.72;;
67902;SDS011;54708;43.612;1.568;2024-03-02T02:27:50;9.95;;;6.15;;
67902;SDS011;54708;43.612;1.568;2024-03-02T02:30:19;8.50;;;5.85;;
67902;SDS011;54708;43.612;1.568;2024-03-02T02:32:46;11.57;;;6.28;;
67902;SDS011;54708;43.612;1.568;2024-03-02T02:35:11;5.95;;;4.82;;
67902;SDS011;54708;43.612;1.568;2024-03-02T02:37:37;7.35;;;4.88;;
67902;SDS011;54708;43.612;1.568;2024-03-02T02:40:04;7.85;;;6.18;;
67902;SDS011;54708;43.612;1.568;2024-03-02T02:42:30;8.10;;;5.43;;
67902;SDS011;54708;43.612;1.568;2024-03-02T02:44:55;7.57;;;5.28;;
67902;SDS011;54708;43.612;1.568;2024-03-02T02:47:20;10.93;;;6.00;;
67902;SDS011;54708;43.612;1.568;2024-03-02T02:49:46;8.68;;;5.88;;
67902;SDS011;54708;43.612;1.568;2024-03-02T02:52:12;24.90;;;6.30;;
67902;SDS011;54708;43.612;1.568;2024-03-02T02:54:37;11.27;;;5.97;;
67902;SDS011;54708;43.612;1.568;2024-03-02T02:57:03;8.27;;;5.57;;
67902;SDS011;54708;43.612;1.568;2024-03-02T02:59:28;9.48;;;5.60;;
67902;SDS011;54708;43.612;1.568;2024-03-02T03:01:53;10.43;;;5.43;;
67902;SDS011;54708;43.612;1.568;2024-03-02T03:04:19;9.30;;;5.07;;
67902;SDS011;54708;43.612;1.568;2024-03-02T03:06:44;10.32;;;5.47;;
67902;SDS011;54708;43.612;1.568;2024-03-02T03:09:11;9.23;;;4.90;;
67902;SDS011;54708;43.612;1.568;2024-03-02T03:11:36;8.88;;;4.75;;
67902;SDS011;54708;43.612;1.568;2024-03-02T03:14:02;9.98;;;5.35;;
67902;SDS011;54708;43.612;1.568;2024-03-02T03:16:28;8.40;;;5.30;;
67902;SDS011;54708;43.612;1.568;2024-03-02T03:18:53;9.40;;;5.60;;
67902;SDS011;54708;43.612;1.568;2024-03-02T03:21:18;6.82;;;5.80;;
67902;SDS011;54708;43.612;1.568;2024-03-02T03:23:44;9.40;;;5.82;;
67902;SDS011;54708;43.612;1.568;2024-03-02T03:26:10;9.57;;;6.18;;
67902;SDS011;54708;43.612;1.568;2024-03-02T03:28:35;8.30;;;5.25;;
67902;SDS011;54708;43.612;1.568;2024-03-02T03:31:01;11.27;;;6.20;;
67902;SDS011;54708;43.612;1.568;2024-03-02T03:33:27;9.45;;;5.75;;
67902;SDS011;54708;43.612;1.568;2024-03-02T03:35:52;10.52;;;7.32;;
67902;SDS011;54708;43.612;1.568;2024-03-02T03:38:18;10.75;;;6.43;;
67902;SDS011;54708;43.612;1.568;2024-03-02T03:40:44;9.38;;;5.57;;
67902;SDS011;54708;43.612;1.568;2024-03-02T03:43:10;11.52;;;6.15;;
67902;SDS011;54708;43.612;1.568;2024-03-02T03:45:35;12.45;;;5.78;;
67902;SDS011;54708;43.612;1.568;2024-03-02T03:48:01;11.25;;;6.65;;
67902;SDS011;54708;43.612;1.568;2024-03-02T03:50:27;9.63;;;5.95;;
67902;SDS011;54708;43.612;1.568;2024-03-02T03:52:52;7.65;;;5.35;;
67902;SDS011;54708;43.612;1.568;2024-03-02T03:55:18;9.60;;;6.03;;
67902;SDS011;54708;43.612;1.568;2024-03-02T03:57:43;9.00;;;5.82;;
67902;SDS011;54708;43.612;1.568;2024-03-02T04:00:09;9.38;;;5.07;;
67902;SDS011;54708;43.612;1.568;2024-03-02T04:02:35;10.27;;;5.90;;
67902;SDS011;54708;43.612;1.568;2024-03-02T04:05:01;8.52;;;5.78;;
67902;SDS011;54708;43.612;1.568;2024-03-02T04:07:29;8.98;;;6.32;;
67902;SDS011;54708;43.612;1.568;2024-03-02T04:09:55;9.02;;;5.10;;
67902;SDS011;54708;43.612;1.568;2024-03-02T04:12:21;11.10;;;6.32;;
67902;SDS011;54708;43.612;1.568;2024-03-02T04:14:46;10.20;;;5.32;;
67902;SDS011;54708;43.612;1.568;2024-03-02T04:17:12;7.07;;;4.88;;
67902;SDS011;54708;43.612;1.568;2024-03-02T04:19:38;9.30;;;6.00;;
67902;SDS011;54708;43.612;1.568;2024-03-02T04:22:03;6.93;;;5.07;;
67902;SDS011;54708;43.612;1.568;2024-03-02T04:24:29;10.45;;;5.05;;
67902;SDS011;54708;43.612;1.568;2024-03-02T04:26:55;9.98;;;5.65;;
67902;SDS011;54708;43.612;1.568;2024-03-02T04:29:20;11.68;;;5.55;;
67902;SDS011;54708;43.612;1.568;2024-03-02T04:31:45;8.90;;;5.20;;
67902;SDS011;54708;43.612;1.568;2024-03-02T04:34:11;10.60;;;5.20;;
67902;SDS011;54708;43.612;1.568;2024-03-02T04:36:36;10.30;;;5.32;;
67902;SDS011;54708;43.612;1.568;2024-03-02T04:39:02;6.88;;;4.85;;
67902;SDS011;54708;43.612;1.568;2024-03-02T04:41:27;8.57;;;4.90;;
67902;SDS011;54708;43.612;1.568;2024-03-02T04:43:53;9.40;;;4.57;;
67902;SDS011;54708;43.612;1.568;2024-03-02T04:46:18;7.28;;;5.28;;
67902;SDS011;54708;43.612;1.568;2024-03-02T04:48:43;6.72;;;4.18;;
67902;SDS011;54708;43.612;1.568;2024-03-02T04:51:09;10.93;;;5.20;;
67902;SDS011;54708;43.612;1.568;2024-03-02T04:53:35;9.68;;;5.07;;
67902;SDS011;54708;43.612;1.568;2024-03-02T04:56:00;5.25;;;3.78;;
67902;SDS011;54708;43.612;1.568;2024-03-02T04:58:49;9.82;;;4.75;;
67902;SDS011;54708;43.612;1.568;2024-03-02T05:01:14;5.85;;;3.97;;
67902;SDS011;54708;43.612;1.568;2024-03-02T05:03:41;7.07;;;4.65;;
67902;SDS011;54708;43.612;1.568;2024-03-02T05:06:07;10.93;;;5.38;;
67902;SDS011;54708;43.612;1.568;2024-03-02T05:08:33;6.45;;;4.40;;
67902;SDS011;54708;43.612;1.568;2024-03-02T05:10:59;7.65;;;4.05;;
67902;SDS011;54708;43.612;1.568;2024-03-02T05:13:44;8.85;;;4.90;;
67902;SDS011;54708;43.612;1.568;2024-03-02T05:16:09;6.80;;;4.25;;
67902;SDS011;54708;43.612;1.568;2024-03-02T05:18:36;8.52;;;5.10;;
67902;SDS011;54708;43.612;1.568;2024-03-02T05:21:03;8.18;;;3.65;;
67902;SDS011;54708;43.612;1.568;2024-03-02T05:23:28;6.15;;;3.78;;
67902;SDS011;54708;43.612;1.568;2024-03-02T05:25:54;7.63;;;3.80;;
67902;SDS011;54708;43.612;1.568;2024-03-02T05:28:19;5.15;;;4.03;;
67902;SDS011;54708;43.612;1.568;2024-03-02T05:30:44;8.70;;;4.55;;
67902;SDS011;54708;43.612;1.568;2024-03-02T05:33:10;6.50;;;3.85;;
67902;SDS011;54708;43.612;1.568;2024-03-02T05:35:35;6.57;;;3.13;;
67902;SDS011;54708;43.612;1.568;2024-03-02T05:38:01;7.82;;;4.50;;
67902;SDS011;54708;43.612;1.568;2024-03-02T05:40:26;5.78;;;4.07;;
67902;SDS011;54708;43.612;1.568;2024-03-02T05:42:51;7.65;;;4.10;;
67902;SDS011;54708;43.612;1.568;2024-03-02T05:45:17;4.70;;;2.97;;
67902;SDS011;54708;43.612;1.568;2024-03-02T05:47:42;6.15;;;3.83;;
67902;SDS011;54708;43.612;1.568;2024-03-02T05:50:07;9.13;;;4.10;;
67902;SDS011;54708;43.612;1.568;2024-03-02T05:52:33;7.78;;;3.33;;
67902;SDS011;54708;43.612;1.568;2024-03-02T05:54:58;6.90;;;2.97;;
67902;SDS011;54708;43.612;1.568;2024-03-02T05:57:24;6.78;;;4.30;;
67902;SDS011;54708;43.612;1.568;2024-03-02T06:00:04;8.25;;;3.63;;
67902;SDS011;54708;43.612;1.568;2024-03-02T06:02:33;8.13;;;3.83;;
67902;SDS011;54708;43.612;1.568;2024-03-02T06:05:00;6.03;;;2.95;;
67902;SDS011;54708;43.612;1.568;2024-03-02T06:07:25;4.95;;;2.65;;
67902;SDS011;54708;43.612;1.568;2024-03-02T06:09:50;6.57;;;3.80;;
67902;SDS011;54708;43.612;1.568;2024-03-02T06:12:17;5.22;;;3.22;;
67902;SDS011;54708;43.612;1.568;2024-03-02T06:14:43;7.18;;;2.88;;
67902;SDS011;54708;43.612;1.568;2024-03-02T06:17:08;5.47;;;3.15;;
67902;SDS011;54708;43.612;1.568;2024-03-02T06:19:34;5.90;;;3.10;;
67902;SDS011;54708;43.612;1.568;2024-03-02T06:21:59;4.43;;;3.00;;
67902;SDS011;54708;43.612;1.568;2024-03-02T06:24:24;3.10;;;2.80;;
67902;SDS011;54708;43.612;1.568;2024-03-02T06:26:51;7.63;;;3.17;;
67902;SDS011;54708;43.612;1.568;2024-03-02T06:29:17;4.78;;;2.53;;
67902;SDS011;54708;43.612;1.568;2024-03-02T06:31:42;8.43;;;2.95;;
67902;SDS011;54708;43.612;1.568;2024-03-02T06:34:07;5.25;;;2.80;;
67902;SDS011;54708;43.612;1.568;2024-03-02T06:36:33;3.40;;;3.00;;
67902;SDS011;54708;43.612;1.568;2024-03-02T06:38:59;8.40;;;3.63;;
67902;SDS011;54708;43.612;1.568;2024-03-02T06:41:24;5.72;;;3.97;;
67902;SDS011;54708;43.612;1.568;2024-03-02T06:43:51;4.70;;;3.35;;
67902;SDS011;54708;43.612;1.568;2024-03-02T06:46:24;8.82;;;4.15;;
67902;SDS011;54708;43.612;1.568;2024-03-02T06:48:49;5.30;;;3.55;;
67902;SDS011;54708;43.612;1.568;2024-03-02T06:51:15;3.40;;;2.83;;
67902;SDS011;54708;43.612;1.568;2024-03-02T06:53:40;3.50;;;2.78;;
67902;SDS011;54708;43.612;1.568;2024-03-02T06:56:06;8.25;;;2.78;;
67902;SDS011;54708;43.612;1.568;2024-03-02T06:58:33;6.63;;;3.05;;
67902;SDS011;54708;43.612;1.568;2024-03-02T07:00:58;5.10;;;2.70;;
67902;SDS011;54708;43.612;1.568;2024-03-02T07:03:25;5.68;;;2.75;;
67902;SDS011;54708;43.612;1.568;2024-03-02T07:05:51;3.22;;;2.92;;
67902;SDS011;54708;43.612;1.568;2024-03-02T07:08:16;7.68;;;3.17;;
67902;SDS011;54708;43.612;1.568;2024-03-02T07:10:41;7.35;;;3.33;;
67902;SDS011;54708;43.612;1.568;2024-03-02T07:13:07;5.63;;;3.15;;
67902;SDS011;54708;43.612;1.568;2024-03-02T07:15:32;5.18;;;2.85;;
67902;SDS011;54708;43.612;1.568;2024-03-02T07:18:16;6.82;;;3.03;;
67902;SDS011;54708;43.612;1.568;2024-03-02T07:20:42;6.13;;;3.33;;
67902;SDS011;54708;43.612;1.568;2024-03-02T07:23:07;6.35;;;4.22;;
67902;SDS011;54708;43.612;1.568;2024-03-02T07:25:34;8.20;;;4.18;;
67902;SDS011;54708;43.612;1.568;2024-03-02T07:27:59;5.60;;;3.42;;
67902;SDS011;54708;43.612;1.568;2024-03-02T07:30:25;4.60;;;3.47;;
67902;SDS011;54708;43.612;1.568;2024-03-02T07:32:50;5.95;;;3.00;;
67902;SDS011;54708;43.612;1.568;2024-03-02T07:35:16;5.45;;;2.90;;
67902;SDS011;54708;43.612;1.568;2024-03-02T07:37:41;4.80;;;2.65;;
67902;SDS011;54708;43.612;1.568;2024-03-02T07:40:07;5.47;;;2.95;;
67902;SDS011;54708;43.612;1.568;2024-03-02T07:42:37;7.78;;;3.08;;
67902;SDS011;54708;43.612;1.568;2024-03-02T07:45:04;3.90;;;2.40;;
67902;SDS011;54708;43.612;1.568;2024-03-02T07:47:30;5.10;;;2.95;;
67902;SDS011;54708;43.612;1.568;2024-03-02T07:49:55;4.88;;;3.00;;
67902;SDS011;54708;43.612;1.568;2024-03-02T07:52:20;5.28;;;2.28;;
67902;SDS011;54708;43.612;1.568;2024-03-02T07:54:46;10.00;;;4.40;;
67902;SDS011;54708;43.612;1.568;2024-03-02T07:57:11;5.68;;;2.83;;
67902;SDS011;54708;43.612;1.568;2024-03-02T07:59:37;10.52;;;3.15;;
67902;SDS011;54708;43.612;1.568;2024-03-02T08:02:02;4.53;;;2.92;;
67902;SDS011;54708;43.612;1.568;2024-03-02T08:04:28;3.65;;;2.40;;
67902;SDS011;54708;43.612;1.568;2024-03-02T08:06:53;10.80;;;4.30;;
67902;SDS011;54708;43.612;1.568;2024-03-02T08:09:19;8.43;;;4.22;;
67902;SDS011;54708;43.612;1.568;2024-03-02T08:11:45;6.53;;;3.63;;
67902;SDS011;54708;43.612;1.568;2024-03-02T08:14:10;5.93;;;3.03;;
67902;SDS011;54708;43.612;1.568;2024-03-02T08:16:36;3.55;;;3.03;;
67902;SDS011;54708;43.612;1.568;2024-03-02T08:19:01;4.72;;;2.63;;
67902;SDS011;54708;43.612;1.568;2024-03-02T08:21:26;5.93;;;2.67;;
67902;SDS011;54708;43.612;1.568;2024-03-02T08:23:55;5.13;;;2.47;;
67902;SDS011;54708;43.612;1.568;2024-03-02T08:26:21;6.60;;;2.50;;
67902;SDS011;54708;43.612;1.568;2024-03-02T08:28:47;3.42;;;2.63;;
67902;SDS011;54708;43.612;1.568;2024-03-02T08:31:13;7.15;;;2.92;;
67902;SDS011;54708;43.612;1.568;2024-03-02T08:33:39;5.97;;;2.78;;
67902;SDS011;54708;43.612;1.568;2024-03-02T08:36:05;4.25;;;2.65;;
67902;SDS011;54708;43.612;1.568;2024-03-02T08:38:31;3.92;;;2.38;;
67902;SDS011;54708;43.612;1.568;2024-03-02T08:40:56;6.85;;;3.45;;
67902;SDS011;54708;43.612;1.568;2024-03-02T08:43:22;8.10;;;2.30;;
67902;SDS011;54708;43.612;1.568;2024-03-02T08:45:50;3.60;;;2.30;;
67902;SDS011;54708;43.612;1.568;2024-03-02T08:48:16;5.43;;;2.78;;
67902;SDS011;54708;43.612;1.568;2024-03-02T08:50:41;2.95;;;2.00;;
67902;SDS011;54708;43.612;1.568;2024-03-02T08:53:06;6.32;;;2.30;;
67902;SDS011;54708;43.612;1.568;2024-03-02T08:55:32;2.80;;;2.30;;
67902;SDS011;54708;43.612;1.568;2024-03-02T08:57:57;2.75;;;2.47;;
67902;SDS011;54708;43.612;1.568;2024-03-02T09:00:23;5.15;;;2.30;;
67902;SDS011;54708;43.612;1.568;2024-03-02T09:02:48;4.10;;;3.33;;
67902;SDS011;54708;43.612;1.568;2024-03-02T09:05:14;4.07;;;2.58;;
67902;SDS011;54708;43.612;1.568;2024-03-02T09:07:39;8.50;;;2.53;;
67902;SDS011;54708;43.612;1.568;2024-03-02T09:10:05;5.40;;;2.55;;
67902;SDS011;54708;43.612;1.568;2024-03-02T09:12:31;7.65;;;3.35;;
67902;SDS011;54708;43.612;1.568;2024-03-02T09:14:57;16.55;;;3.60;;
67902;SDS011;54708;43.612;1.568;2024-03-02T09:17:22;7.13;;;3.05;;
67902;SDS011;54708;43.612;1.568;2024-03-02T09:19:48;5.95;;;3.00;;
67902;SDS011;54708;43.612;1.568;2024-03-02T09:22:13;6.20;;;3.28;;
67902;SDS011;54708;43.612;1.568;2024-03-02T09:24:39;6.55;;;4.20;;
67902;SDS011;54708;43.612;1.568;2024-03-02T09:27:04;4.65;;;2.83;;
67902;SDS011;54708;43.612;1.568;2024-03-02T09:29:30;12.35;;;4.13;;
67902;SDS011;54708;43.612;1.568;2024-03-02T09:31:56;7.53;;;3.95;;
67902;SDS011;54708;43.612;1.568;2024-03-02T09:34:21;9.68;;;4.63;;
67902;SDS011;54708;43.612;1.568;2024-03-02T09:36:47;8.65;;;4.05;;
67902;SDS011;54708;43.612;1.568;2024-03-02T09:39:12;11.38;;;3.80;;
67902;SDS011;54708;43.612;1.568;2024-03-02T09:41:38;15.57;;;4.03;;
67902;SDS011;54708;43.612;1.568;2024-03-02T09:44:04;4.85;;;3.45;;
67902;SDS011;54708;43.612;1.568;2024-03-02T09:46:30;8.43;;;5.05;;
67902;SDS011;54708;43.612;1.568;2024-03-02T09:48:56;5.80;;;3.63;;
67902;SDS011;54708;43.612;1.568;2024-03-02T09:51:21;7.25;;;3.60;;
67902;SDS011;54708;43.612;1.568;2024-03-02T09:53:47;11.48;;;3.55;;
67902;SDS011;54708;43.612;1.568;2024-03-02T09:56:13;9.07;;;3.88;;
67902;SDS011;54708;43.612;1.568;2024-03-02T09:58:40;7.60;;;3.60;;
67902;SDS011;54708;43.612;1.568;2024-03-02T10:01:06;8.00;;;4.50;;
67902;SDS011;54708;43.612;1.568;2024-03-02T10:03:32;8.77;;;3.13;;
67902;SDS011;54708;43.612;1.568;2024-03-02T10:06:18;8.40;;;4.10;;
67902;SDS011;54708;43.612;1.568;2024-03-02T10:08:43;10.40;;;4.28;;
67902;SDS011;54708;43.612;1.568;2024-03-02T10:11:09;10.02;;;4.07;;
67902;SDS011;54708;43.612;1.568;2024-03-02T10:13:34;9.00;;;3.40;;
67902;SDS011;54708;43.612;1.568;2024-03-02T10:15:59;11.77;;;3.72;;
67902;SDS011;54708;43.612;1.568;2024-03-02T10:18:36;8.43;;;4.15;;
67902;SDS011;54708;43.612;1.568;2024-03-02T10:21:14;6.28;;;3.17;;
67902;SDS011;54708;43.612;1.568;2024-03-02T10:23:40;7.80;;;3.45;;
67902;SDS011;54708;43.612;1.568;2024-03-02T10:26:17;12.88;;;4.07;;
67902;SDS011;54708;43.612;1.568;2024-03-02T10:28:47;11.05;;;4.30;;
67902;SDS011;54708;43.612;1.568;2024-03-02T10:31:24;10.02;;;3.88;;
67902;SDS011;54708;43.612;1.568;2024-03-02T10:33:52;8.30;;;4.32;;
67902;SDS011;54708;43.612;1.568;2024-03-02T10:36:19;11.27;;;3.55;;
67902;SDS011;54708;43.612;1.568;2024-03-02T10:38:44;7.90;;;3.92;;
67902;SDS011;54708;43.612;1.568;2024-03-02T10:41:12;7.50;;;4.13;;
67902;SDS011;54708;43.612;1.568;2024-03-02T10:43:42;7.90;;;3.88;;
67902;SDS011;54708;43.612;1.568;2024-03-02T10:46:08;9.00;;;3.45;;
67902;SDS011;54708;43.612;1.568;2024-03-02T10:48:33;9.38;;;3.85;;
67902;SDS011;54708;43.612;1.568;2024-03-02T10:51:00;11.10;;;4.65;;
67902;SDS011;54708;43.612;1.568;2024-03-02T10:53:27;10.07;;;3.97;;
67902;SDS011;54708;43.612;1.568;2024-03-02T10:55:53;8.57;;;3.90;;
67902;SDS011;54708;43.612;1.568;2024-03-02T10:58:25;8.45;;;5.25;;
67902;SDS011;54708;43.612;1.568;2024-03-02T11:00:51;19.25;;;5.20;;
67902;SDS011;54708;43.612;1.568;2024-03-02T11:03:17;12.30;;;4.80;;
67902;SDS011;54708;43.612;1.568;2024-03-02T11:05:44;5.97;;;3.95;;
67902;SDS011;54708;43.612;1.568;2024-03-02T11:08:12;7.07;;;3.92;;
67902;SDS011;54708;43.612;1.568;2024-03-02T11:10:48;9.45;;;5.47;;
67902;SDS011;54708;43.612;1.568;2024-03-02T11:13:23;10.82;;;5.10;;
67902;SDS011;54708;43.612;1.568;2024-03-02T11:15:58;12.93;;;5.63;;
67902;SDS011;54708;43.612;1.568;2024-03-02T11:18:27;8.50;;;5.28;;
67902;SDS011;54708;43.612;1.568;2024-03-02T11:20:52;10.35;;;4.68;;
67902;SDS011;54708;43.612;1.568;2024-03-02T11:23:19;10.23;;;4.65;;
67902;SDS011;54708;43.612;1.568;2024-03-02T11:26:16;11.77;;;4.45;;
67902;SDS011;54708;43.612;1.568;2024-03-02T11:28:43;10.15;;;4.65;;
67902;SDS011;54708;43.612;1.568;2024-03-02T11:31:08;10.43;;;4.78;;
67902;SDS011;54708;43.612;1.568;2024-03-02T11:33:33;16.60;;;5.47;;
67902;SDS011;54708;43.612;1.568;2024-03-02T11:35:59;10.77;;;4.07;;
67902;SDS011;54708;43.612;1.568;2024-03-02T11:38:27;11.35;;;3.85;;
67902;SDS011;54708;43.612;1.568;2024-03-02T11:40:54;11.18;;;3.80;;
67902;SDS011;54708;43.612;1.568;2024-03-02T11:43:20;7.68;;;4.28;;
67902;SDS011;54708;43.612;1.568;2024-03-02T11:45:46;9.05;;;4.03;;
67902;SDS011;54708;43.612;1.568;2024-03-02T11:48:14;17.35;;;4.68;;
67902;SDS011;54708;43.612;1.568;2024-03-02T11:50:40;9.27;;;3.67;;
67902;SDS011;54708;43.612;1.568;2024-03-02T11:53:06;8.15;;;3.70;;
67902;SDS011;54708;43.612;1.568;2024-03-02T11:55:36;12.57;;;4.72;;
67902;SDS011;54708;43.612;1.568;2024-03-02T11:58:03;6.57;;;4.10;;
67902;SDS011;54708;43.612;1.568;2024-03-02T12:00:29;8.82;;;4.13;;
67902;SDS011;54708;43.612;1.568;2024-03-02T12:03:01;8.35;;;4.95;;
67902;SDS011;54708;43.612;1.568;2024-03-02T12:05:28;8.00;;;3.10;;
67902;SDS011;54708;43.612;1.568;2024-03-02T12:07:56;10.93;;;3.50;;
67902;SDS011;54708;43.612;1.568;2024-03-02T12:10:22;11.27;;;2.75;;
67902;SDS011;54708;43.612;1.568;2024-03-02T12:12:47;9.85;;;2.88;;
67902;SDS011;54708;43.612;1.568;2024-03-02T12:15:13;6.78;;;2.72;;
67902;SDS011;54708;43.612;1.568;2024-03-02T12:17:38;12.48;;;2.75;;
67902;SDS011;54708;43.612;1.568;2024-03-02T12:20:04;5.90;;;2.90;;
67902;SDS011;54708;43.612;1.568;2024-03-02T12:22:32;5.43;;;2.60;;
67902;SDS011;54708;43.612;1.568;2024-03-02T12:24:57;7.30;;;2.95;;
67902;SDS011;54708;43.612;1.568;2024-03-02T12:27:22;5.70;;;2.45;;
67902;SDS011;54708;43.612;1.568;2024-03-02T12:29:48;5.72;;;2.83;;
67902;SDS011;54708;43.612;1.568;2024-03-02T12:32:13;8.68;;;3.30;;
67902;SDS011;54708;43.612;1.568;2024-03-02T12:34:39;11.10;;;2.78;;
67902;SDS011;54708;43.612;1.568;2024-03-02T12:37:05;7.85;;;2.90;;
67902;SDS011;54708;43.612;1.568;2024-03-02T12:39:30;4.25;;;2.03;;
67902;SDS011;54708;43.612;1.568;2024-03-02T12:41:57;4.65;;;2.20;;
67902;SDS011;54708;43.612;1.568;2024-03-02T12:44:23;4.53;;;2.70;;
67902;SDS011;54708;43.612;1.568;2024-03-02T12:46:48;6.22;;;2.80;;
67902;SDS011;54708;43.612;1.568;2024-03-02T12:49:14;3.10;;;2.33;;
67902;SDS011;54708;43.612;1.568;2024-03-02T12:51:45;3.92;;;2.45;;
67902;SDS011;54708;43.612;1.568;2024-03-02T12:54:16;7.38;;;2.45;;
67902;SDS011;54708;43.612;1.568;2024-03-02T12:56:42;11.63;;;3.92;;
67902;SDS011;54708;43.612;1.568;2024-03-02T12:59:16;4.47;;;3.08;;
67902;SDS011;54708;43.612;1.568;2024-03-02T13:01:49;4.05;;;2.40;;
67902;SDS011;54708;43.612;1.568;2024-03-02T13:06:41;7.80;;;3.00;;
67902;SDS011;54708;43.612;1.568;2024-03-02T13:09:06;5.03;;;2.38;;
67902;SDS011;54708;43.612;1.568;2024-03-02T13:11:39;7.10;;;2.83;;
67902;SDS011;54708;43.612;1.568;2024-03-02T13:14:05;12.45;;;3.00;;
67902;SDS011;54708;43.612;1.568;2024-03-02T13:16:30;10.02;;;2.58;;
67902;SDS011;54708;43.612;1.568;2024-03-02T13:18:56;10.50;;;2.60;;
67902;SDS011;54708;43.612;1.568;2024-03-02T13:21:21;9.43;;;2.42;;
67902;SDS011;54708;43.612;1.568;2024-03-02T13:23:47;6.32;;;2.20;;
67902;SDS011;54708;43.612;1.568;2024-03-02T13:26:12;4.38;;;2.33;;
67902;SDS011;54708;43.612;1.568;2024-03-02T13:28:38;6.15;;;2.00;;
67902;SDS011;54708;43.612;1.568;2024-03-02T13:31:04;6.22;;;2.47;;
67902;SDS011;54708;43.612;1.568;2024-03-02T13:33:30;8.30;;;2.55;;
67902;SDS011;54708;43.612;1.568;2024-03-02T13:35:56;6.57;;;2.70;;
67902;SDS011;54708;43.612;1.568;2024-03-02T13:38:22;7.10;;;2.47;;
67902;SDS011;54708;43.612;1.568;2024-03-02T13:40:48;6.95;;;3.05;;
67902;SDS011;54708;43.612;1.568;2024-03-02T13:43:16;4.65;;;2.72;;
67902;SDS011;54708;43.612;1.568;2024-03-02T13:45:42;6.80;;;2.70;;
67902;SDS011;54708;43.612;1.568;2024-03-02T13:48:07;5.03;;;2.88;;
67902;SDS011;54708;43.612;1.568;2024-03-02T13:50:32;7.30;;;2.40;;
67902;SDS011;54708;43.612;1.568;2024-03-02T13:52:58;4.78;;;2.45;;
67902;SDS011;54708;43.612;1.568;2024-03-02T13:55:23;3.50;;;2.15;;
67902;SDS011;54708;43.612;1.568;2024-03-02T13:57:49;6.07;;;3.03;;
67902;SDS011;54708;43.612;1.568;2024-03-02T14:00:15;8.30;;;2.20;;
67902;SDS011;54708;43.612;1.568;2024-03-02T14:02:42;3.80;;;2.13;;
67902;SDS011;54708;43.612;1.568;2024-03-02T14:05:07;7.50;;;2.13;;
67902;SDS011;54708;43.612;1.568;2024-03-02T14:07:37;6.50;;;2.20;;
67902;SDS011;54708;43.612;1.568;2024-03-02T14:10:03;4.03;;;2.35;;
67902;SDS011;54708;43.612;1.568;2024-03-02T14:12:28;8.38;;;2.63;;
67902;SDS011;54708;43.612;1.568;2024-03-02T14:14:54;6.25;;;3.33;;
67902;SDS011;54708;43.612;1.568;2024-03-02T14:17:23;7.18;;;2.22;;
67902;SDS011;54708;43.612;1.568;2024-03-02T14:19:48;8.85;;;2.65;;
67902;SDS011;54708;43.612;1.568;2024-03-02T14:22:14;6.75;;;2.28;;
67902;SDS011;54708;43.612;1.568;2024-03-02T14:24:42;4.53;;;1.90;;
67902;SDS011;54708;43.612;1.568;2024-03-02T14:27:08;11.35;;;3.13;;
67902;SDS011;54708;43.612;1.568;2024-03-02T14:29:33;5.50;;;3.13;;
67902;SDS011;54708;43.612;1.568;2024-03-02T14:32:01;4.25;;;2.22;;
67902;SDS011;54708;43.612;1.568;2024-03-02T14:34:28;2.85;;;1.80;;
67902;SDS011;54708;43.612;1.568;2024-03-02T14:36:53;5.03;;;2.20;;
67902;SDS011;54708;43.612;1.568;2024-03-02T14:39:18;3.00;;;1.85;;
67902;SDS011;54708;43.612;1.568;2024-03-02T14:41:44;6.05;;;2.70;;